sensor_id;sensor_type;location;lat;lon;timestamp;temperature;humidity
9998;DHT22;5038;53.064;8.624;2023-04-19T00:00:14;8.80;99.90
9998;DHT22;5038;53.064;8.624;2023-04-19T00:02:42;8.80;99.90
9998;DHT22;5038;53.064;8.624;2023-04-19T00:05:10;8.70;99.90
9998;DHT22;5038;53.064;8.624;2023-04-19T00:07:39;8.70;99.90
9998;DHT22;5038;53.064;8.624;2023-04-19T00:10:09;8.80;99.90
9998;DHT22;5038;53.064;8.624;2023-04-19T00:12:38;8.70;99.90
9998;DHT22;5038;53.064;8.624;2023-04-19T00:15:06;8.70;99.90
9998;DHT22;5038;53.064;8.624;2023-04-19T00:17:35;8.60;99.90
9998;DHT22;5038;53.064;8.624;2023-04-19T00:20:04;8.60;99.90
9998;DHT22;5038;53.064;8.624;2023-04-19T00:22:32;8.50;99.90
9998;DHT22;5038;53.064;8.624;2023-04-19T00:25:01;8.50;99.90
9998;DHT22;5038;53.064;8.624;2023-04-19T00:27:31;8.40;99.90
9998;DHT22;5038;53.064;8.624;2023-04-19T00:29:59;8.40;99.90
9998;DHT22;5038;53.064;8.624;2023-04-19T00:32:29;8.40;99.90
9998;DHT22;5038;53.064;8.624;2023-04-19T00:34:58;8.40;99.90
9998;DHT22;5038;53.064;8.624;2023-04-19T00:37:26;8.30;99.90
9998;DHT22;5038;53.064;8.624;2023-04-19T00:39:54;8.20;99.90
9998;DHT22;5038;53.064;8.624;2023-04-19T00:42:22;8.20;99.90
9998;DHT22;5038;53.064;8.624;2023-04-19T00:44:52;8.20;99.90
9998;DHT22;5038;53.064;8.624;2023-04-19T00:47:20;8.10;99.90
9998;DHT22;5038;53.064;8.624;2023-04-19T00:49:48;8.10;99.90
9998;DHT22;5038;53.064;8.624;2023-04-19T00:52:17;8.10;99.90
9998;DHT22;5038;53.064;8.624;2023-04-19T00:54:45;8.00;99.90
9998;DHT22;5038;53.064;8.624;2023-04-19T00:57:14;8.00;99.90
9998;DHT22;5038;53.064;8.624;2023-04-19T00:59:43;8.00;99.90
9998;DHT22;5038;53.064;8.624;2023-04-19T01:02:13;8.00;99.90
9998;DHT22;5038;53.064;8.624;2023-04-19T01:04:41;7.90;99.90
9998;DHT22;5038;53.064;8.624;2023-04-19T01:07:09;7.90;99.90
9998;DHT22;5038;53.064;8.624;2023-04-19T01:09:42;7.80;99.90
9998;DHT22;5038;53.064;8.624;2023-04-19T01:12:11;7.80;99.90
9998;DHT22;5038;53.064;8.624;2023-04-19T01:14:41;7.80;99.90
9998;DHT22;5038;53.064;8.624;2023-04-19T01:17:10;7.80;99.90
9998;DHT22;5038;53.064;8.624;2023-04-19T01:19:41;7.80;99.90
9998;DHT22;5038;53.064;8.624;2023-04-19T01:22:17;7.70;99.90
9998;DHT22;5038;53.064;8.624;2023-04-19T01:24:45;7.70;99.90
9998;DHT22;5038;53.064;8.624;2023-04-19T01:27:13;7.70;99.90
9998;DHT22;5038;53.064;8.624;2023-04-19T01:29:43;7.60;99.90
9998;DHT22;5038;53.064;8.624;2023-04-19T01:32:11;7.60;99.90
9998;DHT22;5038;53.064;8.624;2023-04-19T01:34:39;7.60;99.90
9998;DHT22;5038;53.064;8.624;2023-04-19T01:37:08;7.60;99.90
9998;DHT22;5038;53.064;8.624;2023-04-19T01:39:38;7.50;99.90
9998;DHT22;5038;53.064;8.624;2023-04-19T01:42:06;7.50;99.90
9998;DHT22;5038;53.064;8.624;2023-04-19T01:44:35;7.40;99.90
9998;DHT22;5038;53.064;8.624;2023-04-19T01:47:04;7.50;99.90
9998;DHT22;5038;53.064;8.624;2023-04-19T01:49:32;7.40;99.90
9998;DHT22;5038;53.064;8.624;2023-04-19T01:52:00;7.40;99.90
9998;DHT22;5038;53.064;8.624;2023-04-19T01:54:28;7.40;99.90
9998;DHT22;5038;53.064;8.624;2023-04-19T01:56:58;7.30;99.90
9998;DHT22;5038;53.064;8.624;2023-04-19T01:59:26;7.30;99.90
9998;DHT22;5038;53.064;8.624;2023-04-19T02:01:54;7.30;99.90
9998;DHT22;5038;53.064;8.624;2023-04-19T02:04:23;7.30;99.90
9998;DHT22;5038;53.064;8.624;2023-04-19T02:06:52;7.20;99.90
9998;DHT22;5038;53.064;8.624;2023-04-19T02:09:20;7.20;99.90
9998;DHT22;5038;53.064;8.624;2023-04-19T02:11:48;7.20;99.90
9998;DHT22;5038;53.064;8.624;2023-04-19T02:14:18;7.10;99.90
9998;DHT22;5038;53.064;8.624;2023-04-19T02:16:46;7.10;99.90
9998;DHT22;5038;53.064;8.624;2023-04-19T02:19:14;7.10;99.90
9998;DHT22;5038;53.064;8.624;2023-04-19T02:21:42;7.00;99.90
9998;DHT22;5038;53.064;8.624;2023-04-19T02:24:13;7.00;99.90
9998;DHT22;5038;53.064;8.624;2023-04-19T02:26:42;6.90;99.90
9998;DHT22;5038;53.064;8.624;2023-04-19T02:29:10;6.90;99.90
9998;DHT22;5038;53.064;8.624;2023-04-19T02:31:39;6.90;99.90
9998;DHT22;5038;53.064;8.624;2023-04-19T02:34:08;6.80;99.90
9998;DHT22;5038;53.064;8.624;2023-04-19T02:36:36;6.80;99.90
9998;DHT22;5038;53.064;8.624;2023-04-19T02:39:05;6.80;99.90
9998;DHT22;5038;53.064;8.624;2023-04-19T02:41:37;6.80;99.90
9998;DHT22;5038;53.064;8.624;2023-04-19T02:44:05;6.70;99.90
9998;DHT22;5038;53.064;8.624;2023-04-19T02:46:34;6.70;99.90
9998;DHT22;5038;53.064;8.624;2023-04-19T02:49:04;6.70;99.90
9998;DHT22;5038;53.064;8.624;2023-04-19T02:51:32;6.60;99.90
9998;DHT22;5038;53.064;8.624;2023-04-19T02:54:00;6.60;99.90
9998;DHT22;5038;53.064;8.624;2023-04-19T02:56:29;6.50;99.90
9998;DHT22;5038;53.064;8.624;2023-04-19T02:58:59;6.50;99.90
9998;DHT22;5038;53.064;8.624;2023-04-19T03:01:28;6.40;99.90
9998;DHT22;5038;53.064;8.624;2023-04-19T03:03:58;6.40;99.90
9998;DHT22;5038;53.064;8.624;2023-04-19T03:06:28;6.30;99.90
9998;DHT22;5038;53.064;8.624;2023-04-19T03:08:56;6.30;99.90
9998;DHT22;5038;53.064;8.624;2023-04-19T03:11:26;6.30;99.90
9998;DHT22;5038;53.064;8.624;2023-04-19T03:13:54;6.20;99.90
9998;DHT22;5038;53.064;8.624;2023-04-19T03:16:23;6.20;99.90
9998;DHT22;5038;53.064;8.624;2023-04-19T03:18:52;6.20;99.90
9998;DHT22;5038;53.064;8.624;2023-04-19T03:21:24;6.20;99.90
9998;DHT22;5038;53.064;8.624;2023-04-19T03:23:56;6.10;99.90
9998;DHT22;5038;53.064;8.624;2023-04-19T03:26:25;6.10;99.90
9998;DHT22;5038;53.064;8.624;2023-04-19T03:28:55;6.10;99.90
9998;DHT22;5038;53.064;8.624;2023-04-19T03:31:33;6.10;99.90
9998;DHT22;5038;53.064;8.624;2023-04-19T03:34:03;6.00;99.90
9998;DHT22;5038;53.064;8.624;2023-04-19T03:36:38;6.00;99.90
9998;DHT22;5038;53.064;8.624;2023-04-19T03:39:08;5.90;99.90
9998;DHT22;5038;53.064;8.624;2023-04-19T03:41:39;5.90;99.90
9998;DHT22;5038;53.064;8.624;2023-04-19T03:44:21;5.90;99.90
9998;DHT22;5038;53.064;8.624;2023-04-19T03:46:49;5.90;99.90
9998;DHT22;5038;53.064;8.624;2023-04-19T03:49:22;5.90;99.90
9998;DHT22;5038;53.064;8.624;2023-04-19T03:51:59;5.80;99.90
9998;DHT22;5038;53.064;8.624;2023-04-19T03:54:30;5.80;99.90
9998;DHT22;5038;53.064;8.624;2023-04-19T03:56:58;5.80;99.90
9998;DHT22;5038;53.064;8.624;2023-04-19T03:59:27;5.70;99.90
9998;DHT22;5038;53.064;8.624;2023-04-19T04:01:57;5.70;99.90
9998;DHT22;5038;53.064;8.624;2023-04-19T04:04:25;5.70;99.90
9998;DHT22;5038;53.064;8.624;2023-04-19T04:06:54;5.70;99.90
9998;DHT22;5038;53.064;8.624;2023-04-19T04:09:22;5.60;99.90
9998;DHT22;5038;53.064;8.624;2023-04-19T04:11:53;5.60;99.90
9998;DHT22;5038;53.064;8.624;2023-04-19T04:14:21;5.60;99.90
9998;DHT22;5038;53.064;8.624;2023-04-19T04:16:49;5.60;99.90
9998;DHT22;5038;53.064;8.624;2023-04-19T04:19:18;5.50;99.90
9998;DHT22;5038;53.064;8.624;2023-04-19T04:21:48;5.50;99.90
9998;DHT22;5038;53.064;8.624;2023-04-19T04:24:16;5.40;99.90
9998;DHT22;5038;53.064;8.624;2023-04-19T04:27:03;5.40;99.90
9998;DHT22;5038;53.064;8.624;2023-04-19T04:29:35;5.40;99.90
9998;DHT22;5038;53.064;8.624;2023-04-19T04:32:06;5.30;99.90
9998;DHT22;5038;53.064;8.624;2023-04-19T04:34:39;5.30;99.90
9998;DHT22;5038;53.064;8.624;2023-04-19T04:37:14;5.30;99.90
9998;DHT22;5038;53.064;8.624;2023-04-19T04:39:43;5.20;99.90
9998;DHT22;5038;53.064;8.624;2023-04-19T04:42:13;5.20;99.90
9998;DHT22;5038;53.064;8.624;2023-04-19T04:44:41;5.20;99.90
9998;DHT22;5038;53.064;8.624;2023-04-19T04:47:11;5.20;99.90
9998;DHT22;5038;53.064;8.624;2023-04-19T04:49:46;5.20;99.90
9998;DHT22;5038;53.064;8.624;2023-04-19T04:52:14;5.20;99.90
9998;DHT22;5038;53.064;8.624;2023-04-19T04:54:56;5.10;99.90
9998;DHT22;5038;53.064;8.624;2023-04-19T04:57:31;5.10;99.90
9998;DHT22;5038;53.064;8.624;2023-04-19T05:00:00;5.10;99.90
9998;DHT22;5038;53.064;8.624;2023-04-19T05:02:35;5.10;99.90
9998;DHT22;5038;53.064;8.624;2023-04-19T05:05:04;5.10;99.90
9998;DHT22;5038;53.064;8.624;2023-04-19T05:07:33;5.10;99.90
9998;DHT22;5038;53.064;8.624;2023-04-19T05:10:01;5.00;99.90
9998;DHT22;5038;53.064;8.624;2023-04-19T05:12:40;5.00;99.90
9998;DHT22;5038;53.064;8.624;2023-04-19T05:15:09;5.00;99.90
9998;DHT22;5038;53.064;8.624;2023-04-19T05:17:40;5.00;99.90
9998;DHT22;5038;53.064;8.624;2023-04-19T05:20:10;5.00;99.90
9998;DHT22;5038;53.064;8.624;2023-04-19T05:22:38;5.00;99.90
9998;DHT22;5038;53.064;8.624;2023-04-19T05:25:09;5.00;99.90
9998;DHT22;5038;53.064;8.624;2023-04-19T05:27:39;5.00;99.90
9998;DHT22;5038;53.064;8.624;2023-04-19T05:30:09;5.00;99.90
9998;DHT22;5038;53.064;8.624;2023-04-19T05:32:41;5.00;99.90
9998;DHT22;5038;53.064;8.624;2023-04-19T05:35:13;5.00;99.90
9998;DHT22;5038;53.064;8.624;2023-04-19T05:37:43;5.00;99.90
9998;DHT22;5038;53.064;8.624;2023-04-19T05:40:12;5.00;99.90
9998;DHT22;5038;53.064;8.624;2023-04-19T05:42:41;5.10;99.90
9998;DHT22;5038;53.064;8.624;2023-04-19T05:45:10;5.10;99.90
9998;DHT22;5038;53.064;8.624;2023-04-19T05:47:41;5.10;99.90
9998;DHT22;5038;53.064;8.624;2023-04-19T05:50:39;5.10;99.90
9998;DHT22;5038;53.064;8.624;2023-04-19T05:53:24;5.20;99.90
9998;DHT22;5038;53.064;8.624;2023-04-19T05:55:54;5.20;99.90
9998;DHT22;5038;53.064;8.624;2023-04-19T05:58:23;5.20;99.90
9998;DHT22;5038;53.064;8.624;2023-04-19T06:00:52;5.30;99.90
9998;DHT22;5038;53.064;8.624;2023-04-19T06:03:22;5.30;99.90
9998;DHT22;5038;53.064;8.624;2023-04-19T06:05:54;5.40;99.90
9998;DHT22;5038;53.064;8.624;2023-04-19T06:08:23;5.60;99.90
9998;DHT22;5038;53.064;8.624;2023-04-19T06:10:53;5.80;99.90
9998;DHT22;5038;53.064;8.624;2023-04-19T06:13:35;6.10;99.90
9998;DHT22;5038;53.064;8.624;2023-04-19T06:16:03;6.30;99.90
9998;DHT22;5038;53.064;8.624;2023-04-19T06:18:32;6.50;99.90
9998;DHT22;5038;53.064;8.624;2023-04-19T06:21:00;6.80;99.90
9998;DHT22;5038;53.064;8.624;2023-04-19T06:23:28;7.00;99.90
9998;DHT22;5038;53.064;8.624;2023-04-19T06:25:56;7.30;99.90
9998;DHT22;5038;53.064;8.624;2023-04-19T06:28:24;7.40;99.90
9998;DHT22;5038;53.064;8.624;2023-04-19T06:30:54;7.60;99.90
9998;DHT22;5038;53.064;8.624;2023-04-19T06:33:22;7.80;99.90
9998;DHT22;5038;53.064;8.624;2023-04-19T06:35:50;8.00;99.90
9998;DHT22;5038;53.064;8.624;2023-04-19T06:38:18;8.20;99.90
9998;DHT22;5038;53.064;8.624;2023-04-19T06:40:46;8.40;99.90
9998;DHT22;5038;53.064;8.624;2023-04-19T06:43:14;8.60;99.90
9998;DHT22;5038;53.064;8.624;2023-04-19T06:45:42;8.90;99.90
9998;DHT22;5038;53.064;8.624;2023-04-19T06:48:12;8.90;99.90
9998;DHT22;5038;53.064;8.624;2023-04-19T06:50:40;9.00;99.90
9998;DHT22;5038;53.064;8.624;2023-04-19T06:53:08;9.10;99.90
9998;DHT22;5038;53.064;8.624;2023-04-19T06:55:36;9.20;99.90
9998;DHT22;5038;53.064;8.624;2023-04-19T06:58:04;9.20;99.90
9998;DHT22;5038;53.064;8.624;2023-04-19T07:00:36;9.20;99.90
9998;DHT22;5038;53.064;8.624;2023-04-19T07:03:04;9.20;99.90
9998;DHT22;5038;53.064;8.624;2023-04-19T07:05:35;9.30;99.90
9998;DHT22;5038;53.064;8.624;2023-04-19T07:08:03;9.40;99.90
9998;DHT22;5038;53.064;8.624;2023-04-19T07:10:31;9.40;99.90
9998;DHT22;5038;53.064;8.624;2023-04-19T07:12:59;9.40;99.90
9998;DHT22;5038;53.064;8.624;2023-04-19T07:15:28;9.40;99.90
9998;DHT22;5038;53.064;8.624;2023-04-19T07:17:56;9.50;99.90
9998;DHT22;5038;53.064;8.624;2023-04-19T07:20:24;9.60;99.90
9998;DHT22;5038;53.064;8.624;2023-04-19T07:22:53;9.80;99.90
9998;DHT22;5038;53.064;8.624;2023-04-19T07:25:21;10.00;99.90
9998;DHT22;5038;53.064;8.624;2023-04-19T07:27:51;10.10;99.90
9998;DHT22;5038;53.064;8.624;2023-04-19T07:30:20;10.40;99.90
9998;DHT22;5038;53.064;8.624;2023-04-19T07:32:48;10.60;99.90
9998;DHT22;5038;53.064;8.624;2023-04-19T07:35:17;10.80;99.90
9998;DHT22;5038;53.064;8.624;2023-04-19T07:37:46;11.00;99.90
9998;DHT22;5038;53.064;8.624;2023-04-19T07:40:16;11.20;99.90
9998;DHT22;5038;53.064;8.624;2023-04-19T07:42:45;11.40;99.90
9998;DHT22;5038;53.064;8.624;2023-04-19T07:45:13;11.50;99.90
9998;DHT22;5038;53.064;8.624;2023-04-19T07:47:41;11.70;99.90
9998;DHT22;5038;53.064;8.624;2023-04-19T07:50:10;11.80;99.90
9998;DHT22;5038;53.064;8.624;2023-04-19T07:52:38;11.90;99.90
9998;DHT22;5038;53.064;8.624;2023-04-19T07:55:07;12.00;99.90
9998;DHT22;5038;53.064;8.624;2023-04-19T07:57:37;12.20;99.90
9998;DHT22;5038;53.064;8.624;2023-04-19T08:00:06;12.30;99.90
9998;DHT22;5038;53.064;8.624;2023-04-19T08:02:42;12.50;99.90
9998;DHT22;5038;53.064;8.624;2023-04-19T08:05:12;12.60;99.90
9998;DHT22;5038;53.064;8.624;2023-04-19T08:07:42;12.70;99.90
9998;DHT22;5038;53.064;8.624;2023-04-19T08:10:11;12.90;99.90
9998;DHT22;5038;53.064;8.624;2023-04-19T08:12:41;13.00;99.90
9998;DHT22;5038;53.064;8.624;2023-04-19T08:15:27;13.00;99.90
9998;DHT22;5038;53.064;8.624;2023-04-19T08:18:15;13.20;99.90
9998;DHT22;5038;53.064;8.624;2023-04-19T08:20:45;13.30;99.90
9998;DHT22;5038;53.064;8.624;2023-04-19T08:23:13;13.30;99.90
9998;DHT22;5038;53.064;8.624;2023-04-19T08:25:53;13.40;99.90
9998;DHT22;5038;53.064;8.624;2023-04-19T08:28:22;13.50;99.90
9998;DHT22;5038;53.064;8.624;2023-04-19T08:30:51;13.60;99.90
9998;DHT22;5038;53.064;8.624;2023-04-19T08:33:19;13.60;99.80
9998;DHT22;5038;53.064;8.624;2023-04-19T08:35:47;13.70;99.70
9998;DHT22;5038;53.064;8.624;2023-04-19T08:38:15;13.80;99.70
9998;DHT22;5038;53.064;8.624;2023-04-19T08:40:46;13.90;99.60
9998;DHT22;5038;53.064;8.624;2023-04-19T08:43:16;14.00;99.40
9998;DHT22;5038;53.064;8.624;2023-04-19T08:45:47;14.10;99.30
9998;DHT22;5038;53.064;8.624;2023-04-19T08:48:16;14.10;99.10
9998;DHT22;5038;53.064;8.624;2023-04-19T08:50:44;14.20;98.90
9998;DHT22;5038;53.064;8.624;2023-04-19T08:53:32;14.20;98.50
9998;DHT22;5038;53.064;8.624;2023-04-19T08:56:01;14.30;98.40
9998;DHT22;5038;53.064;8.624;2023-04-19T08:58:49;14.30;98.10
9998;DHT22;5038;53.064;8.624;2023-04-19T09:01:38;14.40;97.80
9998;DHT22;5038;53.064;8.624;2023-04-19T09:04:10;14.50;97.80
9998;DHT22;5038;53.064;8.624;2023-04-19T09:06:41;14.60;97.60
9998;DHT22;5038;53.064;8.624;2023-04-19T09:09:17;14.60;97.20
9998;DHT22;5038;53.064;8.624;2023-04-19T09:11:48;14.70;96.70
9998;DHT22;5038;53.064;8.624;2023-04-19T09:14:18;14.70;96.60
9998;DHT22;5038;53.064;8.624;2023-04-19T09:16:48;14.80;96.60
9998;DHT22;5038;53.064;8.624;2023-04-19T09:19:18;14.80;96.00
9998;DHT22;5038;53.064;8.624;2023-04-19T09:21:51;14.80;95.50
9998;DHT22;5038;53.064;8.624;2023-04-19T09:24:36;14.80;95.30
9998;DHT22;5038;53.064;8.624;2023-04-19T09:27:27;14.90;94.90
9998;DHT22;5038;53.064;8.624;2023-04-19T09:29:56;14.90;95.10
9998;DHT22;5038;53.064;8.624;2023-04-19T09:32:26;14.90;94.80
9998;DHT22;5038;53.064;8.624;2023-04-19T09:34:56;14.90;94.70
9998;DHT22;5038;53.064;8.624;2023-04-19T09:37:25;15.00;94.40
9998;DHT22;5038;53.064;8.624;2023-04-19T09:40:23;15.00;94.30
9998;DHT22;5038;53.064;8.624;2023-04-19T09:42:53;15.00;93.70
9998;DHT22;5038;53.064;8.624;2023-04-19T09:45:42;14.90;93.60
9998;DHT22;5038;53.064;8.624;2023-04-19T09:48:12;14.90;93.40
9998;DHT22;5038;53.064;8.624;2023-04-19T09:50:50;14.90;93.40
9998;DHT22;5038;53.064;8.624;2023-04-19T09:53:27;14.90;93.40
9998;DHT22;5038;53.064;8.624;2023-04-19T09:55:55;14.90;93.40
9998;DHT22;5038;53.064;8.624;2023-04-19T09:58:29;14.90;93.30
9998;DHT22;5038;53.064;8.624;2023-04-19T10:01:00;14.90;92.90
9998;DHT22;5038;53.064;8.624;2023-04-19T10:03:44;14.80;92.90
9998;DHT22;5038;53.064;8.624;2023-04-19T10:06:16;14.80;93.10
9998;DHT22;5038;53.064;8.624;2023-04-19T10:08:48;14.80;93.10
9998;DHT22;5038;53.064;8.624;2023-04-19T10:11:18;14.90;93.20
9998;DHT22;5038;53.064;8.624;2023-04-19T10:13:48;14.90;93.10
9998;DHT22;5038;53.064;8.624;2023-04-19T10:16:16;14.90;93.00
9998;DHT22;5038;53.064;8.624;2023-04-19T10:18:48;15.00;92.90
9998;DHT22;5038;53.064;8.624;2023-04-19T10:21:18;15.00;92.70
9998;DHT22;5038;53.064;8.624;2023-04-19T10:23:47;15.00;92.70
9998;DHT22;5038;53.064;8.624;2023-04-19T10:26:16;15.00;92.60
9998;DHT22;5038;53.064;8.624;2023-04-19T10:28:44;15.00;92.70
9998;DHT22;5038;53.064;8.624;2023-04-19T10:31:12;15.10;92.80
9998;DHT22;5038;53.064;8.624;2023-04-19T10:33:40;15.10;92.70
9998;DHT22;5038;53.064;8.624;2023-04-19T10:36:13;15.20;92.40
9998;DHT22;5038;53.064;8.624;2023-04-19T10:38:44;15.20;92.20
9998;DHT22;5038;53.064;8.624;2023-04-19T10:41:14;15.20;91.70
9998;DHT22;5038;53.064;8.624;2023-04-19T10:43:46;15.20;91.20
9998;DHT22;5038;53.064;8.624;2023-04-19T10:46:16;15.10;90.80
9998;DHT22;5038;53.064;8.624;2023-04-19T10:49:04;15.10;90.50
9998;DHT22;5038;53.064;8.624;2023-04-19T10:51:36;15.10;90.70
9998;DHT22;5038;53.064;8.624;2023-04-19T10:54:06;15.10;90.70
9998;DHT22;5038;53.064;8.624;2023-04-19T10:57:00;15.10;90.50
9998;DHT22;5038;53.064;8.624;2023-04-19T10:59:31;15.20;90.10
9998;DHT22;5038;53.064;8.624;2023-04-19T11:02:00;15.20;90.20
9998;DHT22;5038;53.064;8.624;2023-04-19T11:04:58;15.20;90.00
9998;DHT22;5038;53.064;8.624;2023-04-19T11:07:36;15.20;89.80
9998;DHT22;5038;53.064;8.624;2023-04-19T11:10:05;15.30;89.80
9998;DHT22;5038;53.064;8.624;2023-04-19T11:12:33;15.30;89.50
9998;DHT22;5038;53.064;8.624;2023-04-19T11:15:02;15.30;89.30
9998;DHT22;5038;53.064;8.624;2023-04-19T11:17:32;15.30;88.20
9998;DHT22;5038;53.064;8.624;2023-04-19T11:20:04;15.30;88.10
9998;DHT22;5038;53.064;8.624;2023-04-19T11:22:37;15.30;87.70
9998;DHT22;5038;53.064;8.624;2023-04-19T11:25:07;15.30;87.60
9998;DHT22;5038;53.064;8.624;2023-04-19T11:27:35;15.30;86.90
9998;DHT22;5038;53.064;8.624;2023-04-19T11:30:05;15.30;86.80
9998;DHT22;5038;53.064;8.624;2023-04-19T11:32:34;15.30;86.20
9998;DHT22;5038;53.064;8.624;2023-04-19T11:35:04;15.20;86.30
9998;DHT22;5038;53.064;8.624;2023-04-19T11:37:34;15.20;86.20
9998;DHT22;5038;53.064;8.624;2023-04-19T11:40:05;15.20;86.30
9998;DHT22;5038;53.064;8.624;2023-04-19T11:42:34;15.20;86.30
9998;DHT22;5038;53.064;8.624;2023-04-19T11:45:03;15.20;86.10
9998;DHT22;5038;53.064;8.624;2023-04-19T11:47:46;15.20;86.10
9998;DHT22;5038;53.064;8.624;2023-04-19T11:50:31;15.20;85.50
9998;DHT22;5038;53.064;8.624;2023-04-19T11:53:08;15.20;85.60
9998;DHT22;5038;53.064;8.624;2023-04-19T11:55:41;15.20;85.30
9998;DHT22;5038;53.064;8.624;2023-04-19T11:58:22;15.20;85.00
9998;DHT22;5038;53.064;8.624;2023-04-19T12:00:51;15.10;85.20
9998;DHT22;5038;53.064;8.624;2023-04-19T12:03:22;15.10;85.40
9998;DHT22;5038;53.064;8.624;2023-04-19T12:05:54;15.10;85.30
9998;DHT22;5038;53.064;8.624;2023-04-19T12:08:29;15.10;85.30
9998;DHT22;5038;53.064;8.624;2023-04-19T12:10:59;15.10;84.50
9998;DHT22;5038;53.064;8.624;2023-04-19T12:13:29;15.10;84.20
9998;DHT22;5038;53.064;8.624;2023-04-19T12:15:58;15.10;84.30
9998;DHT22;5038;53.064;8.624;2023-04-19T12:18:26;15.10;83.90
9998;DHT22;5038;53.064;8.624;2023-04-19T12:20:54;15.10;84.10
9998;DHT22;5038;53.064;8.624;2023-04-19T12:23:25;15.10;83.80
9998;DHT22;5038;53.064;8.624;2023-04-19T12:25:53;15.00;83.00
9998;DHT22;5038;53.064;8.624;2023-04-19T12:28:22;15.00;82.80
9998;DHT22;5038;53.064;8.624;2023-04-19T12:30:51;15.00;82.70
9998;DHT22;5038;53.064;8.624;2023-04-19T12:33:19;15.00;82.90
9998;DHT22;5038;53.064;8.624;2023-04-19T12:35:49;15.10;82.90
9998;DHT22;5038;53.064;8.624;2023-04-19T12:38:17;15.10;81.80
9998;DHT22;5038;53.064;8.624;2023-04-19T12:40:45;15.10;81.90
9998;DHT22;5038;53.064;8.624;2023-04-19T12:43:14;15.10;82.00
9998;DHT22;5038;53.064;8.624;2023-04-19T12:45:43;15.20;81.50
9998;DHT22;5038;53.064;8.624;2023-04-19T12:48:12;15.20;81.40
9998;DHT22;5038;53.064;8.624;2023-04-19T12:50:40;15.20;81.20
9998;DHT22;5038;53.064;8.624;2023-04-19T12:53:08;15.20;80.50
9998;DHT22;5038;53.064;8.624;2023-04-19T12:55:36;15.20;80.20
9998;DHT22;5038;53.064;8.624;2023-04-19T12:58:05;15.20;79.80
9998;DHT22;5038;53.064;8.624;2023-04-19T13:00:33;15.20;79.40
9998;DHT22;5038;53.064;8.624;2023-04-19T13:03:03;15.20;79.30
9998;DHT22;5038;53.064;8.624;2023-04-19T13:05:31;15.30;79.10
9998;DHT22;5038;53.064;8.624;2023-04-19T13:07:59;15.30;77.90
9998;DHT22;5038;53.064;8.624;2023-04-19T13:10:27;15.30;77.60
9998;DHT22;5038;53.064;8.624;2023-04-19T13:12:55;15.30;77.50
9998;DHT22;5038;53.064;8.624;2023-04-19T13:15:25;15.20;77.60
9998;DHT22;5038;53.064;8.624;2023-04-19T13:17:54;15.20;77.20
9998;DHT22;5038;53.064;8.624;2023-04-19T13:20:24;15.20;78.10
9998;DHT22;5038;53.064;8.624;2023-04-19T13:22:52;15.20;77.20
9998;DHT22;5038;53.064;8.624;2023-04-19T13:25:20;15.20;76.50
9998;DHT22;5038;53.064;8.624;2023-04-19T13:27:48;15.20;75.80
9998;DHT22;5038;53.064;8.624;2023-04-19T13:30:17;15.20;75.80
9998;DHT22;5038;53.064;8.624;2023-04-19T13:32:45;15.20;75.00
9998;DHT22;5038;53.064;8.624;2023-04-19T13:35:13;15.20;73.90
9998;DHT22;5038;53.064;8.624;2023-04-19T13:37:43;15.20;73.20
9998;DHT22;5038;53.064;8.624;2023-04-19T13:40:13;15.20;72.80
9998;DHT22;5038;53.064;8.624;2023-04-19T13:42:45;15.10;71.90
9998;DHT22;5038;53.064;8.624;2023-04-19T13:45:13;15.10;71.20
9998;DHT22;5038;53.064;8.624;2023-04-19T13:47:41;15.00;70.50
9998;DHT22;5038;53.064;8.624;2023-04-19T13:50:10;15.00;70.40
9998;DHT22;5038;53.064;8.624;2023-04-19T13:52:38;15.00;70.20
9998;DHT22;5038;53.064;8.624;2023-04-19T13:55:08;14.90;69.80
9998;DHT22;5038;53.064;8.624;2023-04-19T13:57:36;15.00;69.60
9998;DHT22;5038;53.064;8.624;2023-04-19T14:00:06;14.90;69.60
9998;DHT22;5038;53.064;8.624;2023-04-19T14:02:34;15.00;69.40
9998;DHT22;5038;53.064;8.624;2023-04-19T14:05:03;15.00;68.90
9998;DHT22;5038;53.064;8.624;2023-04-19T14:07:31;14.90;68.50
9998;DHT22;5038;53.064;8.624;2023-04-19T14:10:00;14.90;68.40
9998;DHT22;5038;53.064;8.624;2023-04-19T14:12:29;14.90;68.70
9998;DHT22;5038;53.064;8.624;2023-04-19T14:14:57;14.90;68.80
9998;DHT22;5038;53.064;8.624;2023-04-19T14:17:25;14.90;68.40
9998;DHT22;5038;53.064;8.624;2023-04-19T14:19:54;14.90;68.10
9998;DHT22;5038;53.064;8.624;2023-04-19T14:22:23;14.90;68.80
9998;DHT22;5038;53.064;8.624;2023-04-19T14:24:51;14.90;67.80
9998;DHT22;5038;53.064;8.624;2023-04-19T14:27:19;14.90;67.80
9998;DHT22;5038;53.064;8.624;2023-04-19T14:29:48;14.90;67.40
9998;DHT22;5038;53.064;8.624;2023-04-19T14:32:16;14.90;67.00
9998;DHT22;5038;53.064;8.624;2023-04-19T14:34:51;14.90;66.60
9998;DHT22;5038;53.064;8.624;2023-04-19T14:37:20;14.90;66.70
9998;DHT22;5038;53.064;8.624;2023-04-19T14:39:49;14.90;66.70
9998;DHT22;5038;53.064;8.624;2023-04-19T14:42:17;14.90;66.70
9998;DHT22;5038;53.064;8.624;2023-04-19T14:44:50;14.90;66.40
9998;DHT22;5038;53.064;8.624;2023-04-19T14:47:19;14.80;66.20
9998;DHT22;5038;53.064;8.624;2023-04-19T14:49:47;14.80;65.90
9998;DHT22;5038;53.064;8.624;2023-04-19T14:52:16;14.80;66.00
9998;DHT22;5038;53.064;8.624;2023-04-19T14:54:44;14.70;66.10
9998;DHT22;5038;53.064;8.624;2023-04-19T14:57:13;14.80;66.20
9998;DHT22;5038;53.064;8.624;2023-04-19T14:59:41;14.70;66.10
9998;DHT22;5038;53.064;8.624;2023-04-19T15:02:11;14.70;67.00
9998;DHT22;5038;53.064;8.624;2023-04-19T15:04:39;14.70;66.00
9998;DHT22;5038;53.064;8.624;2023-04-19T15:07:08;14.70;65.90
9998;DHT22;5038;53.064;8.624;2023-04-19T15:09:36;14.70;65.70
9998;DHT22;5038;53.064;8.624;2023-04-19T15:12:06;14.70;65.50
9998;DHT22;5038;53.064;8.624;2023-04-19T15:14:34;14.70;65.20
9998;DHT22;5038;53.064;8.624;2023-04-19T15:17:02;14.60;65.10
9998;DHT22;5038;53.064;8.624;2023-04-19T15:19:32;14.60;65.20
9998;DHT22;5038;53.064;8.624;2023-04-19T15:22:00;14.60;64.80
9998;DHT22;5038;53.064;8.624;2023-04-19T15:24:29;14.60;64.90
9998;DHT22;5038;53.064;8.624;2023-04-19T15:26:58;14.50;64.40
9998;DHT22;5038;53.064;8.624;2023-04-19T15:29:27;14.50;64.40
9998;DHT22;5038;53.064;8.624;2023-04-19T15:31:55;14.40;64.40
9998;DHT22;5038;53.064;8.624;2023-04-19T15:34:23;14.40;64.70
9998;DHT22;5038;53.064;8.624;2023-04-19T15:36:53;14.40;65.00
9998;DHT22;5038;53.064;8.624;2023-04-19T15:39:21;14.40;64.60
9998;DHT22;5038;53.064;8.624;2023-04-19T15:41:49;14.40;64.30
9998;DHT22;5038;53.064;8.624;2023-04-19T15:44:17;14.40;64.10
9998;DHT22;5038;53.064;8.624;2023-04-19T15:46:45;14.40;64.40
9998;DHT22;5038;53.064;8.624;2023-04-19T15:49:14;14.40;64.60
9998;DHT22;5038;53.064;8.624;2023-04-19T15:51:42;14.40;64.60
9998;DHT22;5038;53.064;8.624;2023-04-19T15:54:13;14.40;64.80
9998;DHT22;5038;53.064;8.624;2023-04-19T15:56:41;14.30;63.70
9998;DHT22;5038;53.064;8.624;2023-04-19T15:59:09;14.30;63.70
9998;DHT22;5038;53.064;8.624;2023-04-19T16:01:37;14.30;63.70
9998;DHT22;5038;53.064;8.624;2023-04-19T16:04:06;14.30;63.50
9998;DHT22;5038;53.064;8.624;2023-04-19T16:06:34;14.30;63.40
9998;DHT22;5038;53.064;8.624;2023-04-19T16:09:03;14.30;63.40
9998;DHT22;5038;53.064;8.624;2023-04-19T16:11:34;14.30;63.30
9998;DHT22;5038;53.064;8.624;2023-04-19T16:14:02;14.20;63.20
9998;DHT22;5038;53.064;8.624;2023-04-19T16:16:30;14.20;63.50
9998;DHT22;5038;53.064;8.624;2023-04-19T16:19:00;14.20;63.60
9998;DHT22;5038;53.064;8.624;2023-04-19T16:21:29;14.20;63.50
9998;DHT22;5038;53.064;8.624;2023-04-19T16:23:57;14.20;63.50
9998;DHT22;5038;53.064;8.624;2023-04-19T16:26:26;14.30;63.60
9998;DHT22;5038;53.064;8.624;2023-04-19T16:28:56;14.30;63.50